sensor_id;sensor_type;location;lat;lon;timestamp;P1;durP1;ratioP1;P2;durP2;ratioP2
29370;SDS011;16357;52.188;7.838;2022-11-23T00:01:14;2.42;;;1.42;;
29370;SDS011;16357;52.188;7.838;2022-11-23T00:03:44;3.22;;;1.35;;
29370;SDS011;16357;52.188;7.838;2022-11-23T00:06:11;1.90;;;1.05;;
29370;SDS011;16357;52.188;7.838;2022-11-23T00:08:38;1.48;;;0.93;;
29370;SDS011;16357;52.188;7.838;2022-11-23T00:11:05;2.55;;;1.45;;
29370;SDS011;16357;52.188;7.838;2022-11-23T00:13:32;2.58;;;1.20;;
29370;SDS011;16357;52.188;7.838;2022-11-23T00:16:03;2.85;;;1.17;;
29370;SDS011;16357;52.188;7.838;2022-11-23T00:18:31;2.55;;;1.30;;
29370;SDS011;16357;52.188;7.838;2022-11-23T00:20:57;2.90;;;1.40;;
29370;SDS011;16357;52.188;7.838;2022-11-23T00:23:24;3.65;;;1.25;;
29370;SDS011;16357;52.188;7.838;2022-11-23T00:25:51;1.95;;;1.23;;
29370;SDS011;16357;52.188;7.838;2022-11-23T00:28:17;2.70;;;1.20;;
29370;SDS011;16357;52.188;7.838;2022-11-23T00:30:47;3.47;;;1.40;;
29370;SDS011;16357;52.188;7.838;2022-11-23T00:33:15;1.95;;;1.17;;
29370;SDS011;16357;52.188;7.838;2022-11-23T00:35:42;2.05;;;1.42;;
29370;SDS011;16357;52.188;7.838;2022-11-23T00:38:08;1.73;;;1.23;;
29370;SDS011;16357;52.188;7.838;2022-11-23T00:40:35;3.92;;;1.23;;
29370;SDS011;16357;52.188;7.838;2022-11-23T00:43:02;3.67;;;1.20;;
29370;SDS011;16357;52.188;7.838;2022-11-23T00:45:28;2.50;;;1.33;;
29370;SDS011;16357;52.188;7.838;2022-11-23T00:47:55;3.70;;;1.30;;
29370;SDS011;16357;52.188;7.838;2022-11-23T00:50:21;4.43;;;1.38;;
29370;SDS011;16357;52.188;7.838;2022-11-23T00:52:48;2.80;;;1.20;;
29370;SDS011;16357;52.188;7.838;2022-11-23T00:55:14;2.47;;;1.10;;
29370;SDS011;16357;52.188;7.838;2022-11-23T00:57:40;1.67;;;0.90;;
29370;SDS011;16357;52.188;7.838;2022-11-23T01:00:07;3.63;;;1.05;;
29370;SDS011;16357;52.188;7.838;2022-11-23T01:02:34;1.90;;;1.00;;
29370;SDS011;16357;52.188;7.838;2022-11-23T01:05:01;3.53;;;1.50;;
29370;SDS011;16357;52.188;7.838;2022-11-23T01:07:28;3.35;;;1.40;;
29370;SDS011;16357;52.188;7.838;2022-11-23T01:09:57;5.32;;;1.55;;
29370;SDS011;16357;52.188;7.838;2022-11-23T01:12:24;4.45;;;1.27;;
29370;SDS011;16357;52.188;7.838;2022-11-23T01:14:51;7.72;;;1.50;;
29370;SDS011;16357;52.188;7.838;2022-11-23T01:17:19;3.53;;;1.30;;
29370;SDS011;16357;52.188;7.838;2022-11-23T01:19:45;3.40;;;1.65;;
29370;SDS011;16357;52.188;7.838;2022-11-23T01:22:11;3.05;;;1.27;;
29370;SDS011;16357;52.188;7.838;2022-11-23T01:24:38;2.55;;;1.20;;
29370;SDS011;16357;52.188;7.838;2022-11-23T01:27:04;3.63;;;1.30;;
29370;SDS011;16357;52.188;7.838;2022-11-23T01:29:31;3.97;;;1.38;;
29370;SDS011;16357;52.188;7.838;2022-11-23T01:31:58;4.82;;;1.45;;
29370;SDS011;16357;52.188;7.838;2022-11-23T01:34:42;3.80;;;1.45;;
29370;SDS011;16357;52.188;7.838;2022-11-23T01:37:08;3.47;;;1.38;;
29370;SDS011;16357;52.188;7.838;2022-11-23T01:39:35;2.15;;;1.25;;
29370;SDS011;16357;52.188;7.838;2022-11-23T01:42:01;2.08;;;1.10;;
29370;SDS011;16357;52.188;7.838;2022-11-23T01:44:32;5.45;;;1.40;;
29370;SDS011;16357;52.188;7.838;2022-11-23T01:47:09;2.60;;;1.10;;
29370;SDS011;16357;52.188;7.838;2022-11-23T01:49:40;4.07;;;1.60;;
29370;SDS011;16357;52.188;7.838;2022-11-23T01:52:10;4.03;;;1.40;;
29370;SDS011;16357;52.188;7.838;2022-11-23T01:54:47;1.77;;;0.98;;
29370;SDS011;16357;52.188;7.838;2022-11-23T01:57:23;3.72;;;1.15;;
29370;SDS011;16357;52.188;7.838;2022-11-23T01:59:53;3.90;;;1.42;;
29370;SDS011;16357;52.188;7.838;2022-11-23T02:02:21;4.78;;;1.60;;
29370;SDS011;16357;52.188;7.838;2022-11-23T02:04:47;4.07;;;1.38;;
29370;SDS011;16357;52.188;7.838;2022-11-23T02:07:17;4.80;;;1.50;;
29370;SDS011;16357;52.188;7.838;2022-11-23T02:09:44;3.45;;;1.27;;
29370;SDS011;16357;52.188;7.838;2022-11-23T02:12:12;5.38;;;1.75;;
29370;SDS011;16357;52.188;7.838;2022-11-23T02:14:39;5.55;;;1.45;;
29370;SDS011;16357;52.188;7.838;2022-11-23T02:17:07;4.57;;;1.40;;
29370;SDS011;16357;52.188;7.838;2022-11-23T02:22:33;3.90;;;1.60;;
29370;SDS011;16357;52.188;7.838;2022-11-23T02:25:07;4.03;;;1.48;;
29370;SDS011;16357;52.188;7.838;2022-11-23T02:27:56;6.07;;;1.60;;
29370;SDS011;16357;52.188;7.838;2022-11-23T02:30:22;3.45;;;1.35;;
29370;SDS011;16357;52.188;7.838;2022-11-23T02:32:49;3.53;;;1.27;;
29370;SDS011;16357;52.188;7.838;2022-11-23T02:35:15;2.08;;;1.30;;
29370;SDS011;16357;52.188;7.838;2022-11-23T02:37:42;5.93;;;1.80;;
29370;SDS011;16357;52.188;7.838;2022-11-23T02:40:11;3.53;;;1.48;;
29370;SDS011;16357;52.188;7.838;2022-11-23T02:42:48;5.00;;;1.70;;
29370;SDS011;16357;52.188;7.838;2022-11-23T02:45:21;5.07;;;1.45;;
29370;SDS011;16357;52.188;7.838;2022-11-23T02:47:53;4.10;;;1.70;;
29370;SDS011;16357;52.188;7.838;2022-11-23T02:50:20;6.47;;;1.73;;
29370;SDS011;16357;52.188;7.838;2022-11-23T02:52:46;2.05;;;1.33;;
29370;SDS011;16357;52.188;7.838;2022-11-23T02:55:13;4.68;;;1.60;;
29370;SDS011;16357;52.188;7.838;2022-11-23T02:57:39;5.07;;;1.50;;
29370;SDS011;16357;52.188;7.838;2022-11-23T03:00:06;5.55;;;1.70;;
29370;SDS011;16357;52.188;7.838;2022-11-23T03:02:33;5.40;;;1.88;;
29370;SDS011;16357;52.188;7.838;2022-11-23T03:04:59;4.18;;;1.60;;
29370;SDS011;16357;52.188;7.838;2022-11-23T03:07:25;4.35;;;1.48;;
29370;SDS011;16357;52.188;7.838;2022-11-23T03:09:52;5.93;;;1.60;;
29370;SDS011;16357;52.188;7.838;2022-11-23T03:12:18;4.72;;;1.83;;
29370;SDS011;16357;52.188;7.838;2022-11-23T03:14:45;4.60;;;1.45;;
29370;SDS011;16357;52.188;7.838;2022-11-23T03:17:11;4.35;;;1.70;;
29370;SDS011;16357;52.188;7.838;2022-11-23T03:19:38;5.43;;;1.75;;
29370;SDS011;16357;52.188;7.838;2022-11-23T03:22:04;4.72;;;1.77;;
29370;SDS011;16357;52.188;7.838;2022-11-23T03:24:30;5.03;;;1.80;;
29370;SDS011;16357;52.188;7.838;2022-11-23T03:26:57;4.18;;;1.65;;
29370;SDS011;16357;52.188;7.838;2022-11-23T03:29:23;4.53;;;2.00;;
29370;SDS011;16357;52.188;7.838;2022-11-23T03:31:52;5.70;;;1.70;;
29370;SDS011;16357;52.188;7.838;2022-11-23T03:34:19;5.88;;;1.75;;
29370;SDS011;16357;52.188;7.838;2022-11-23T03:36:45;4.97;;;2.05;;
29370;SDS011;16357;52.188;7.838;2022-11-23T03:39:11;4.78;;;1.80;;
29370;SDS011;16357;52.188;7.838;2022-11-23T03:41:38;8.00;;;1.75;;
29370;SDS011;16357;52.188;7.838;2022-11-23T03:44:04;5.60;;;1.70;;
29370;SDS011;16357;52.188;7.838;2022-11-23T03:46:31;4.82;;;1.55;;
29370;SDS011;16357;52.188;7.838;2022-11-23T03:48:57;5.85;;;1.75;;
29370;SDS011;16357;52.188;7.838;2022-11-23T03:51:23;4.90;;;1.80;;
29370;SDS011;16357;52.188;7.838;2022-11-23T03:53:50;6.88;;;2.20;;
29370;SDS011;16357;52.188;7.838;2022-11-23T03:56:16;4.93;;;1.95;;
29370;SDS011;16357;52.188;7.838;2022-11-23T03:58:42;5.40;;;1.92;;
29370;SDS011;16357;52.188;7.838;2022-11-23T04:01:09;4.57;;;1.90;;
29370;SDS011;16357;52.188;7.838;2022-11-23T04:03:35;4.95;;;1.77;;
29370;SDS011;16357;52.188;7.838;2022-11-23T04:06:02;6.28;;;1.80;;
29370;SDS011;16357;52.188;7.838;2022-11-23T04:08:28;6.35;;;1.77;;
29370;SDS011;16357;52.188;7.838;2022-11-23T04:10:55;4.38;;;1.65;;
29370;SDS011;16357;52.188;7.838;2022-11-23T04:13:23;7.05;;;1.75;;
29370;SDS011;16357;52.188;7.838;2022-11-23T04:15:49;4.75;;;1.70;;
29370;SDS011;16357;52.188;7.838;2022-11-23T04:18:16;3.88;;;1.48;;
29370;SDS011;16357;52.188;7.838;2022-11-23T04:20:42;6.80;;;2.03;;
29370;SDS011;16357;52.188;7.838;2022-11-23T04:23:08;5.70;;;1.73;;
29370;SDS011;16357;52.188;7.838;2022-11-23T04:25:38;5.07;;;1.42;;
29370;SDS011;16357;52.188;7.838;2022-11-23T04:28:05;2.67;;;1.52;;
29370;SDS011;16357;52.188;7.838;2022-11-23T04:30:31;3.20;;;1.42;;
29370;SDS011;16357;52.188;7.838;2022-11-23T04:32:58;4.50;;;1.98;;
29370;SDS011;16357;52.188;7.838;2022-11-23T04:35:24;4.13;;;1.90;;
29370;SDS011;16357;52.188;7.838;2022-11-23T04:37:50;4.18;;;1.58;;
29370;SDS011;16357;52.188;7.838;2022-11-23T04:40:17;4.07;;;1.52;;
29370;SDS011;16357;52.188;7.838;2022-11-23T04:42:43;4.43;;;1.48;;
29370;SDS011;16357;52.188;7.838;2022-11-23T04:45:10;5.88;;;1.48;;
29370;SDS011;16357;52.188;7.838;2022-11-23T04:47:37;5.20;;;1.70;;
29370;SDS011;16357;52.188;7.838;2022-11-23T04:50:03;3.67;;;1.55;;
29370;SDS011;16357;52.188;7.838;2022-11-23T04:52:30;4.55;;;1.70;;
29370;SDS011;16357;52.188;7.838;2022-11-23T04:54:56;3.00;;;1.52;;
29370;SDS011;16357;52.188;7.838;2022-11-23T04:57:22;5.93;;;1.45;;
29370;SDS011;16357;52.188;7.838;2022-11-23T04:59:49;5.15;;;1.63;;
29370;SDS011;16357;52.188;7.838;2022-11-23T05:02:15;7.78;;;1.83;;
29370;SDS011;16357;52.188;7.838;2022-11-23T05:04:42;4.85;;;1.60;;
29370;SDS011;16357;52.188;7.838;2022-11-23T05:07:08;6.72;;;1.50;;
29370;SDS011;16357;52.188;7.838;2022-11-23T05:09:34;5.30;;;1.75;;
29370;SDS011;16357;52.188;7.838;2022-11-23T05:12:01;4.82;;;1.60;;
29370;SDS011;16357;52.188;7.838;2022-11-23T05:14:27;6.15;;;1.40;;
29370;SDS011;16357;52.188;7.838;2022-11-23T05:16:53;3.85;;;1.63;;
29370;SDS011;16357;52.188;7.838;2022-11-23T05:19:20;4.43;;;1.60;;
29370;SDS011;16357;52.188;7.838;2022-11-23T05:21:46;4.93;;;1.83;;
29370;SDS011;16357;52.188;7.838;2022-11-23T05:24:12;5.90;;;1.77;;
29370;SDS011;16357;52.188;7.838;2022-11-23T05:26:39;5.28;;;1.58;;
29370;SDS011;16357;52.188;7.838;2022-11-23T05:29:05;7.15;;;1.50;;
29370;SDS011;16357;52.188;7.838;2022-11-23T05:31:32;6.57;;;1.48;;
29370;SDS011;16357;52.188;7.838;2022-11-23T05:33:58;5.70;;;1.63;;
29370;SDS011;16357;52.188;7.838;2022-11-23T05:36:25;3.55;;;1.55;;
29370;SDS011;16357;52.188;7.838;2022-11-23T05:38:51;4.13;;;1.52;;
29370;SDS011;16357;52.188;7.838;2022-11-23T05:41:17;5.13;;;1.73;;
29370;SDS011;16357;52.188;7.838;2022-11-23T05:43:44;3.83;;;1.50;;
29370;SDS011;16357;52.188;7.838;2022-11-23T05:46:10;6.32;;;1.63;;
29370;SDS011;16357;52.188;7.838;2022-11-23T05:48:36;4.72;;;1.73;;
29370;SDS011;16357;52.188;7.838;2022-11-23T05:51:03;4.28;;;1.70;;
29370;SDS011;16357;52.188;7.838;2022-11-23T05:53:31;5.13;;;1.88;;
29370;SDS011;16357;52.188;7.838;2022-11-23T05:55:58;7.55;;;2.13;;
29370;SDS011;16357;52.188;7.838;2022-11-23T05:58:26;3.53;;;1.50;;
29370;SDS011;16357;52.188;7.838;2022-11-23T06:00:57;8.25;;;2.15;;
29370;SDS011;16357;52.188;7.838;2022-11-23T06:03:24;5.70;;;2.35;;
29370;SDS011;16357;52.188;7.838;2022-11-23T06:05:51;4.22;;;1.88;;
29370;SDS011;16357;52.188;7.838;2022-11-23T06:08:17;4.00;;;2.00;;
29370;SDS011;16357;52.188;7.838;2022-11-23T06:10:43;4.47;;;1.90;;
29370;SDS011;16357;52.188;7.838;2022-11-23T06:13:10;5.53;;;2.20;;
29370;SDS011;16357;52.188;7.838;2022-11-23T06:15:36;7.85;;;2.35;;
29370;SDS011;16357;52.188;7.838;2022-11-23T06:18:02;6.20;;;2.22;;
29370;SDS011;16357;52.188;7.838;2022-11-23T06:20:29;3.20;;;2.15;;
29370;SDS011;16357;52.188;7.838;2022-11-23T06:22:55;5.68;;;2.28;;
29370;SDS011;16357;52.188;7.838;2022-11-23T06:25:22;3.80;;;1.85;;
29370;SDS011;16357;52.188;7.838;2022-11-23T06:27:53;4.78;;;1.75;;
29370;SDS011;16357;52.188;7.838;2022-11-23T06:30:26;3.05;;;1.77;;
29370;SDS011;16357;52.188;7.838;2022-11-23T06:32:53;5.18;;;1.75;;
29370;SDS011;16357;52.188;7.838;2022-11-23T06:35:20;4.43;;;1.98;;
29370;SDS011;16357;52.188;7.838;2022-11-23T06:37:47;3.13;;;1.50;;
29370;SDS011;16357;52.188;7.838;2022-11-23T06:40:15;4.43;;;1.70;;
29370;SDS011;16357;52.188;7.838;2022-11-23T06:42:42;3.42;;;1.90;;
29370;SDS011;16357;52.188;7.838;2022-11-23T06:45:08;3.60;;;1.60;;
29370;SDS011;16357;52.188;7.838;2022-11-23T06:47:35;4.40;;;2.00;;
29370;SDS011;16357;52.188;7.838;2022-11-23T06:50:01;5.07;;;1.52;;
29370;SDS011;16357;52.188;7.838;2022-11-23T06:52:28;5.28;;;1.80;;
29370;SDS011;16357;52.188;7.838;2022-11-23T06:54:54;2.55;;;1.60;;
29370;SDS011;16357;52.188;7.838;2022-11-23T06:57:21;4.32;;;1.98;;
29370;SDS011;16357;52.188;7.838;2022-11-23T06:59:47;3.13;;;1.95;;
29370;SDS011;16357;52.188;7.838;2022-11-23T07:02:14;3.58;;;1.80;;
29370;SDS011;16357;52.188;7.838;2022-11-23T07:04:40;5.13;;;2.28;;
29370;SDS011;16357;52.188;7.838;2022-11-23T07:07:07;4.32;;;1.90;;
29370;SDS011;16357;52.188;7.838;2022-11-23T07:09:34;4.68;;;2.05;;
29370;SDS011;16357;52.188;7.838;2022-11-23T07:12:01;5.25;;;2.15;;
29370;SDS011;16357;52.188;7.838;2022-11-23T07:14:27;4.63;;;2.03;;
29370;SDS011;16357;52.188;7.838;2022-11-23T07:16:53;4.15;;;1.98;;
29370;SDS011;16357;52.188;7.838;2022-11-23T07:19:20;4.20;;;1.95;;
29370;SDS011;16357;52.188;7.838;2022-11-23T07:21:46;2.88;;;1.80;;
29370;SDS011;16357;52.188;7.838;2022-11-23T07:24:12;5.60;;;2.10;;
29370;SDS011;16357;52.188;7.838;2022-11-23T07:26:39;4.10;;;2.00;;
29370;SDS011;16357;52.188;7.838;2022-11-23T07:29:05;3.88;;;1.73;;
29370;SDS011;16357;52.188;7.838;2022-11-23T07:31:31;4.82;;;1.90;;
29370;SDS011;16357;52.188;7.838;2022-11-23T07:33:58;3.67;;;2.03;;
29370;SDS011;16357;52.188;7.838;2022-11-23T07:36:24;6.57;;;2.15;;
29370;SDS011;16357;52.188;7.838;2022-11-23T07:38:50;6.65;;;1.75;;
29370;SDS011;16357;52.188;7.838;2022-11-23T07:41:17;3.35;;;1.83;;
29370;SDS011;16357;52.188;7.838;2022-11-23T07:43:43;4.65;;;1.55;;
29370;SDS011;16357;52.188;7.838;2022-11-23T07:46:10;3.85;;;1.58;;
29370;SDS011;16357;52.188;7.838;2022-11-23T07:48:49;4.20;;;1.67;;
29370;SDS011;16357;52.188;7.838;2022-11-23T07:51:15;4.00;;;1.80;;
29370;SDS011;16357;52.188;7.838;2022-11-23T07:53:45;6.35;;;1.60;;
29370;SDS011;16357;52.188;7.838;2022-11-23T07:56:11;6.75;;;1.98;;
29370;SDS011;16357;52.188;7.838;2022-11-23T07:58:38;4.80;;;1.40;;
29370;SDS011;16357;52.188;7.838;2022-11-23T08:01:04;5.70;;;1.92;;
29370;SDS011;16357;52.188;7.838;2022-11-23T08:03:31;2.97;;;1.55;;
29370;SDS011;16357;52.188;7.838;2022-11-23T08:05:57;4.03;;;1.60;;
29370;SDS011;16357;52.188;7.838;2022-11-23T08:08:24;6.00;;;1.70;;
29370;SDS011;16357;52.188;7.838;2022-11-23T08:10:50;5.53;;;2.00;;
29370;SDS011;16357;52.188;7.838;2022-11-23T08:13:19;5.15;;;1.88;;
29370;SDS011;16357;52.188;7.838;2022-11-23T08:15:47;7.65;;;1.65;;
29370;SDS011;16357;52.188;7.838;2022-11-23T08:18:20;4.78;;;1.67;;
29370;SDS011;16357;52.188;7.838;2022-11-23T08:20:46;3.00;;;1.23;;
29370;SDS011;16357;52.188;7.838;2022-11-23T08:23:13;5.13;;;1.83;;
29370;SDS011;16357;52.188;7.838;2022-11-23T08:25:39;6.40;;;1.70;;
29370;SDS011;16357;52.188;7.838;2022-11-23T08:28:05;7.68;;;1.95;;
29370;SDS011;16357;52.188;7.838;2022-11-23T08:30:32;6.07;;;1.65;;
29370;SDS011;16357;52.188;7.838;2022-11-23T08:33:03;4.68;;;1.80;;
29370;SDS011;16357;52.188;7.838;2022-11-23T08:35:37;4.18;;;1.52;;
29370;SDS011;16357;52.188;7.838;2022-11-23T08:38:05;4.00;;;1.48;;
29370;SDS011;16357;52.188;7.838;2022-11-23T08:40:33;3.50;;;1.83;;
29370;SDS011;16357;52.188;7.838;2022-11-23T08:43:00;4.30;;;1.45;;
29370;SDS011;16357;52.188;7.838;2022-11-23T08:45:26;4.95;;;2.00;;
29370;SDS011;16357;52.188;7.838;2022-11-23T08:47:53;4.93;;;1.60;;
29370;SDS011;16357;52.188;7.838;2022-11-23T08:50:26;5.40;;;1.55;;
29370;SDS011;16357;52.188;7.838;2022-11-23T08:52:54;7.32;;;1.98;;
29370;SDS011;16357;52.188;7.838;2022-11-23T08:55:22;5.60;;;1.65;;
29370;SDS011;16357;52.188;7.838;2022-11-23T08:57:49;3.88;;;1.50;;
29370;SDS011;16357;52.188;7.838;2022-11-23T09:00:19;5.53;;;1.80;;
29370;SDS011;16357;52.188;7.838;2022-11-23T09:02:45;7.20;;;2.13;;
29370;SDS011;16357;52.188;7.838;2022-11-23T09:05:12;7.57;;;2.08;;
29370;SDS011;16357;52.188;7.838;2022-11-23T09:07:38;5.32;;;1.60;;
29370;SDS011;16357;52.188;7.838;2022-11-23T09:10:05;6.32;;;1.92;;
29370;SDS011;16357;52.188;7.838;2022-11-23T09:12:32;9.15;;;2.65;;
29370;SDS011;16357;52.188;7.838;2022-11-23T09:14:58;4.00;;;1.65;;
29370;SDS011;16357;52.188;7.838;2022-11-23T09:17:25;5.45;;;1.98;;
29370;SDS011;16357;52.188;7.838;2022-11-23T09:19:51;3.97;;;1.30;;
29370;SDS011;16357;52.188;7.838;2022-11-23T09:22:17;5.15;;;2.15;;
29370;SDS011;16357;52.188;7.838;2022-11-23T09:24:44;6.15;;;1.80;;
29370;SDS011;16357;52.188;7.838;2022-11-23T09:27:10;4.75;;;1.52;;
29370;SDS011;16357;52.188;7.838;2022-11-23T09:29:36;4.38;;;1.63;;
29370;SDS011;16357;52.188;7.838;2022-11-23T09:32:03;4.97;;;1.60;;
29370;SDS011;16357;52.188;7.838;2022-11-23T09:34:29;6.95;;;1.48;;
29370;SDS011;16357;52.188;7.838;2022-11-23T09:36:56;4.68;;;1.67;;
29370;SDS011;16357;52.188;7.838;2022-11-23T09:39:23;3.70;;;1.23;;
29370;SDS011;16357;52.188;7.838;2022-11-23T09:42:02;3.80;;;1.33;;
29370;SDS011;16357;52.188;7.838;2022-11-23T09:44:51;6.20;;;1.70;;
29370;SDS011;16357;52.188;7.838;2022-11-23T09:53:20;3.42;;;1.65;;
29370;SDS011;16357;52.188;7.838;2022-11-23T09:55:53;4.75;;;1.70;;
29370;SDS011;16357;52.188;7.838;2022-11-23T09:58:23;6.15;;;1.80;;
29370;SDS011;16357;52.188;7.838;2022-11-23T10:01:02;5.38;;;1.58;;
29370;SDS011;16357;52.188;7.838;2022-11-23T10:03:31;6.30;;;1.55;;
29370;SDS011;16357;52.188;7.838;2022-11-23T10:06:15;6.10;;;1.70;;
29370;SDS011;16357;52.188;7.838;2022-11-23T10:17:08;5.15;;;1.55;;
29370;SDS011;16357;52.188;7.838;2022-11-23T10:25:06;5.50;;;1.90;;
29370;SDS011;16357;52.188;7.838;2022-11-23T10:27:41;4.32;;;1.60;;
29370;SDS011;16357;52.188;7.838;2022-11-23T10:30:11;5.63;;;1.77;;
29370;SDS011;16357;52.188;7.838;2022-11-23T10:35:19;6.18;;;1.42;;
29370;SDS011;16357;52.188;7.838;2022-11-23T10:37:59;4.65;;;1.38;;
29370;SDS011;16357;52.188;7.838;2022-11-23T10:40:42;5.38;;;1.40;;
29370;SDS011;16357;52.188;7.838;2022-11-23T10:43:15;5.68;;;1.67;;
29370;SDS011;16357;52.188;7.838;2022-11-23T10:45:47;3.55;;;1.25;;
29370;SDS011;16357;52.188;7.838;2022-11-23T10:48:31;5.43;;;1.50;;
29370;SDS011;16357;52.188;7.838;2022-11-23T10:51:14;7.63;;;1.83;;
29370;SDS011;16357;52.188;7.838;2022-11-23T10:53:49;4.35;;;1.20;;
29370;SDS011;16357;52.188;7.838;2022-11-23T10:56:18;5.18;;;1.40;;
29370;SDS011;16357;52.188;7.838;2022-11-23T10:58:45;5.10;;;1.90;;
29370;SDS011;16357;52.188;7.838;2022-11-23T11:01:13;4.28;;;1.67;;
29370;SDS011;16357;52.188;7.838;2022-11-23T11:03:51;4.47;;;1.58;;
29370;SDS011;16357;52.188;7.838;2022-11-23T11:06:22;2.72;;;1.10;;
29370;SDS011;16357;52.188;7.838;2022-11-23T11:08:52;3.72;;;1.23;;
29370;SDS011;16357;52.188;7.838;2022-11-23T11:13:47;6.20;;;1.98;;
29370;SDS011;16357;52.188;7.838;2022-11-23T11:18:43;11.10;;;1.90;;
29370;SDS011;16357;52.188;7.838;2022-11-23T11:21:20;7.35;;;1.65;;
29370;SDS011;16357;52.188;7.838;2022-11-23T11:23:58;5.30;;;1.33;;
29370;SDS011;16357;52.188;7.838;2022-11-23T11:26:28;8.13;;;1.80;;
29370;SDS011;16357;52.188;7.838;2022-11-23T11:28:59;11.80;;;1.92;;
29370;SDS011;16357;52.188;7.838;2022-11-23T11:37:34;7.82;;;1.90;;
29370;SDS011;16357;52.188;7.838;2022-11-23T11:40:06;4.30;;;1.90;;
29370;SDS011;16357;52.188;7.838;2022-11-23T11:45:11;4.13;;;1.27;;
29370;SDS011;16357;52.188;7.838;2022-11-23T11:47:43;6.22;;;1.67;;
29370;SDS011;16357;52.188;7.838;2022-11-23T11:50:22;7.97;;;1.65;;
29370;SDS011;16357;52.188;7.838;2022-11-23T11:52:59;7.05;;;1.73;;
29370;SDS011;16357;52.188;7.838;2022-11-23T11:55:43;5.82;;;2.00;;
29370;SDS011;16357;52.188;7.838;2022-11-23T11:58:16;7.30;;;1.80;;
29370;SDS011;16357;52.188;7.838;2022-11-23T12:00:43;5.90;;;1.75;;
29370;SDS011;16357;52.188;7.838;2022-11-23T12:06:10;5.13;;;1.58;;
29370;SDS011;16357;52.188;7.838;2022-11-23T12:08:55;6.97;;;1.88;;
29370;SDS011;16357;52.188;7.838;2022-11-23T12:11:31;6.80;;;1.90;;
29370;SDS011;16357;52.188;7.838;2022-11-23T12:14:02;5.05;;;1.80;;
29370;SDS011;16357;52.188;7.838;2022-11-23T12:19:44;5.18;;;1.83;;
29370;SDS011;16357;52.188;7.838;2022-11-23T12:30:45;3.83;;;1.55;;
29370;SDS011;16357;52.188;7.838;2022-11-23T12:33:51;9.85;;;2.28;;
29370;SDS011;16357;52.188;7.838;2022-11-23T12:39:28;5.18;;;1.60;;
29370;SDS011;16357;52.188;7.838;2022-11-23T12:42:23;5.63;;;1.55;;
29370;SDS011;16357;52.188;7.838;2022-11-23T12:47:45;5.18;;;1.75;;
29370;SDS011;16357;52.188;7.838;2022-11-23T12:53:35;8.73;;;1.70;;
29370;SDS011;16357;52.188;7.838;2022-11-23T12:56:28;5.55;;;1.70;;
29370;SDS011;16357;52.188;7.838;2022-11-23T12:59:16;7.50;;;1.98;;
29370;SDS011;16357;52.188;7.838;2022-11-23T13:01:46;6.88;;;1.90;;
29370;SDS011;16357;52.188;7.838;2022-11-23T13:04:31;6.28;;;1.50;;
29370;SDS011;16357;52.188;7.838;2022-11-23T13:07:15;6.07;;;1.83;;
29370;SDS011;16357;52.188;7.838;2022-11-23T13:21:01;5.07;;;1.60;;
29370;SDS011;16357;52.188;7.838;2022-11-23T13:23:35;5.53;;;1.80;;
29370;SDS011;16357;52.188;7.838;2022-11-23T13:26:13;10.95;;;2.08;;
29370;SDS011;16357;52.188;7.838;2022-11-23T13:28:41;8.52;;;2.15;;
29370;SDS011;16357;52.188;7.838;2022-11-23T13:33:42;5.75;;;1.63;;
29370;SDS011;16357;52.188;7.838;2022-11-23T13:42:09;7.63;;;2.13;;
29370;SDS011;16357;52.188;7.838;2022-11-23T13:44:36;9.13;;;2.00;;
29370;SDS011;16357;52.188;7.838;2022-11-23T13:52:05;7.80;;;2.00;;
29370;SDS011;16357;52.188;7.838;2022-11-23T13:55:00;4.57;;;1.70;;
29370;SDS011;16357;52.188;7.838;2022-11-23T13:57:43;8.27;;;1.95;;
29370;SDS011;16357;52.188;7.838;2022-11-23T14:00:46;5.90;;;1.75;;
29370;SDS011;16357;52.188;7.838;2022-11-23T14:06:20;4.93;;;1.83;;
29370;SDS011;16357;52.188;7.838;2022-11-23T14:09:04;9.75;;;1.80;;
29370;SDS011;16357;52.188;7.838;2022-11-23T14:11:57;7.97;;;1.73;;
29370;SDS011;16357;52.188;7.838;2022-11-23T14:17:41;9.02;;;2.10;;
29370;SDS011;16357;52.188;7.838;2022-11-23T14:26:20;5.97;;;1.92;;
29370;SDS011;16357;52.188;7.838;2022-11-23T14:43:39;6.45;;;2.05;;
29370;SDS011;16357;52.188;7.838;2022-11-23T14:46:12;7.00;;;1.90;;
29370;SDS011;16357;52.188;7.838;2022-11-23T14:48:47;7.57;;;2.13;;
29370;SDS011;16357;52.188;7.838;2022-11-23T14:53:54;6.15;;;2.15;;
29370;SDS011;16357;52.188;7.838;2022-11-23T14:59:01;6.97;;;1.88;;
29370;SDS011;16357;52.188;7.838;2022-11-23T15:01:31;4.90;;;1.70;;
29370;SDS011;16357;52.188;7.838;2022-11-23T15:03:59;6.32;;;2.17;;
29370;SDS011;16357;52.188;7.838;2022-11-23T15:06:33;8.18;;;2.70;;
29370;SDS011;16357;52.188;7.838;2022-11-23T15:12:19;10.10;;;2.13;;
29370;SDS011;16357;52.188;7.838;2022-11-23T15:14:49;8.13;;;2.78;;
29370;SDS011;16357;52.188;7.838;2022-11-23T15:17:17;5.80;;;1.80;;
29370;SDS011;16357;52.188;7.838;2022-11-23T15:19:55;4.63;;;2.05;;
29370;SDS011;16357;52.188;7.838;2022-11-23T15:22:23;8.00;;;1.80;;
29370;SDS011;16357;52.188;7.838;2022-11-23T15:24:51;8.25;;;2.50;;
29370;SDS011;16357;52.188;7.838;2022-11-23T15:27:22;8.63;;;2.25;;
29370;SDS011;16357;52.188;7.838;2022-11-23T15:29:54;9.13;;;2.30;;
29370;SDS011;16357;52.188;7.838;2022-11-23T15:32:26;6.97;;;2.15;;
29370;SDS011;16357;52.188;7.838;2022-11-23T15:34:58;5.15;;;2.22;;
29370;SDS011;16357;52.188;7.838;2022-11-23T15:37:28;4.90;;;2.20;;
29370;SDS011;16357;52.188;7.838;2022-11-23T15:39:54;7.90;;;2.13;;
29370;SDS011;16357;52.188;7.838;2022-11-23T15:42:22;6.88;;;2.00;;
29370;SDS011;16357;52.188;7.838;2022-11-23T15:44:50;8.02;;;1.90;;
29370;SDS011;16357;52.188;7.838;2022-11-23T15:47:24;4.70;;;1.77;;
29370;SDS011;16357;52.188;7.838;2022-11-23T15:50:00;6.53;;;2.00;;
29370;SDS011;16357;52.188;7.838;2022-11-23T15:52:31;7.40;;;2.17;;
29370;SDS011;16357;52.188;7.838;2022-11-23T15:55:04;8.35;;;2.63;;
29370;SDS011;16357;52.188;7.838;2022-11-23T15:57:35;8.32;;;2.67;;
29370;SDS011;16357;52.188;7.838;2022-11-23T16:00:05;7.13;;;2.50;;
29370;SDS011;16357;52.188;7.838;2022-11-23T16:02:32;9.02;;;2.78;;
29370;SDS011;16357;52.188;7.838;2022-11-23T16:05:13;7.88;;;2.97;;
29370;SDS011;16357;52.188;7.838;2022-11-23T16:07:54;13.48;;;2.85;;
29370;SDS011;16357;52.188;7.838;2022-11-23T16:10:26;6.97;;;2.70;;
29370;SDS011;16357;52.188;7.838;2022-11-23T16:12:58;14.18;;;3.35;;
29370;SDS011;16357;52.188;7.838;2022-11-23T16:17:52;7.55;;;3.13;;
29370;SDS011;16357;52.188;7.838;2022-11-23T16:20:18;6.80;;;3.13;;
29370;SDS011;16357;52.188;7.838;2022-11-23T16:22:49;8.55;;;3.90;;
29370;SDS011;16357;52.188;7.838;2022-11-23T16:25:25;10.85;;;4.30;;
29370;SDS011;16357;52.188;7.838;2022-11-23T16:28:04;9.38;;;3.83;;
29370;SDS011;16357;52.188;7.838;2022-11-23T16:30:43;9.65;;;3.22;;
29370;SDS011;16357;52.188;7.838;2022-11-23T16:33:12;9.10;;;3.78;;
29370;SDS011;16357;52.188;7.838;2022-11-23T16:35:40;14.85;;;4.28;;
29370;SDS011;16357;52.188;7.838;2022-11-23T16:38:06;14.07;;;4.57;;
29370;SDS011;16357;52.188;7.838;2022-11-23T16:40:33;10.90;;;4.43;;
29370;SDS011;16357;52.188;7.838;2022-11-23T16:42:59;8.65;;;4.00;;
29370;SDS011;16357;52.188;7.838;2022-11-23T16:45:26;11.25;;;3.85;;
29370;SDS011;16357;52.188;7.838;2022-11-23T16:47:53;7.13;;;3.22;;
29370;SDS011;16357;52.188;7.838;2022-11-23T16:50:22;9.55;;;3.20;;
29370;SDS011;16357;52.188;7.838;2022-11-23T16:52:49;7.95;;;2.80;;
29370;SDS011;16357;52.188;7.838;2022-11-23T16:55:16;7.45;;;3.03;;
29370;SDS011;16357;52.188;7.838;2022-11-23T16:57:43;8.38;;;2.65;;
29370;SDS011;16357;52.188;7.838;2022-11-23T17:00:13;8.55;;;3.38;;
29370;SDS011;16357;52.188;7.838;2022-11-23T17:02:41;7.43;;;2.70;;
29370;SDS011;16357;52.188;7.838;2022-11-23T17:05:15;10.10;;;2.78;;
29370;SDS011;16357;52.188;7.838;2022-11-23T17:07:43;7.90;;;2.70;;